WetterOnline ( https://www.wetteronline.ch )

Wetter aktuell Arkona

Aktuelles Wetter: Kap Arkona/Rügen (42m)

6-stündlich | Neueste Meldungen
Ortszeit Temperatur Wetter
Fr, 07.08. 20:00 20.5° C leicht bewölkt
Fr, 07.08. 14:00 22.0° C wolkenlos
Fr, 07.08. 8:00 21.3° C wolkenlos
Fr, 07.08. 2:00 20.7° C bedeckt
Do, 06.08. 20:00 20.1° C wolkenlos
Do, 06.08. 14:00 23.7° C wolkenlos
Do, 06.08. 8:00 20.0° C wolkenlos
Do, 06.08. 2:00 20.1° C wolkig
Ortszeit Temperatur Wetter
Fr, 07.08. 20:30 20.2° C leicht bewölkt
Fr, 07.08. 20:20 20.2° C leicht bewölkt
Fr, 07.08. 20:10 20.2° C leicht bewölkt
Fr, 07.08. 20:00 20.5° C leicht bewölkt
Fr, 07.08. 19:50 20.5° C wolkig
Fr, 07.08. 19:40 20.6° C wolkig
Fr, 07.08. 19:30 20.7° C leicht bewölkt
Fr, 07.08. 19:00 20.8° C leicht bewölkt
Ortszeit Relative Feuchte Sichtweite
Fr, 07.08. 20:00 77% 40 km
Fr, 07.08. 14:00 77% 35 km
Fr, 07.08. 8:00 67% 50 km
Fr, 07.08. 2:00 68% 50 km
Do, 06.08. 20:00 78% 45 km
Do, 06.08. 14:00 69% 40 km
Do, 06.08. 8:00 62% 50 km
Do, 06.08. 2:00 62% 50 km
Ortszeit Relative Feuchte Sichtweite
Fr, 07.08. 20:30 78% 50 km
Fr, 07.08. 20:20 78% -
Fr, 07.08. 20:10 78% -
Fr, 07.08. 20:00 77% 40 km
Fr, 07.08. 19:50 77% -
Fr, 07.08. 19:40 77% -
Fr, 07.08. 19:30 77% 55 km
Fr, 07.08. 19:00 80% 65 km
Ortszeit Niederschlagsmenge Niederschlagsart
Fr, 07.08. 20:00 0.0 l/m2 in 12 Std. -
Fr, 07.08. 14:00 0.0 l/m2 in 6 Std. -
Fr, 07.08. 8:00 0.0 l/m2 in 12 Std. -
Fr, 07.08. 2:00 0.0 l/m2 in 6 Std. -
Do, 06.08. 20:00 0.0 l/m2 in 12 Std. -
Do, 06.08. 14:00 0.0 l/m2 in 6 Std. -
Do, 06.08. 8:00 0.0 l/m2 in 12 Std. -
Do, 06.08. 2:00 0.0 l/m2 in 6 Std. -
Ortszeit Niederschlagsmenge Niederschlagsart
Fr, 07.08. 20:30 0.0 l/m2 in 1 Std. -
Fr, 07.08. 20:20 keine Meldung -
Fr, 07.08. 20:10 keine Meldung -
Fr, 07.08. 20:00 0.0 l/m2 in 1 Std. -
Fr, 07.08. 19:50 keine Meldung -
Fr, 07.08. 19:40 keine Meldung -
Fr, 07.08. 19:30 0.0 l/m2 in 1 Std. -
Fr, 07.08. 19:00 0.0 l/m2 in 1 Std. -
Ortszeit Stärke Spitze Richtung
km/h Bft. km/h Grad Sektor
Fr, 07.08. 20:00 17 3 30 80° O
Fr, 07.08. 14:00 9 2 20 90° O
Fr, 07.08. 8:00 13 3 28 150° SO
Fr, 07.08. 2:00 22 4 36 130° SO
Do, 06.08. 20:00 18 3 29 100° O
Do, 06.08. 14:00 20 4 26 120° SO
Do, 06.08. 8:00 18 3 29 200° S
Do, 06.08. 2:00 14 3 22 180° S
Ortszeit Stärke Spitze Richtung
km/h Bft. km/h Grad Sektor
Fr, 07.08. 20:30 18 3 22 80° O
Fr, 07.08. 20:20 18 3 - 80° O
Fr, 07.08. 20:10 18 3 - 90° O
Fr, 07.08. 20:00 17 3 20 80° O
Fr, 07.08. 19:50 17 3 - 80° O
Fr, 07.08. 19:40 18 3 - 80° O
Fr, 07.08. 19:30 18 3 22 80° O
Fr, 07.08. 19:00 18 3 25 80° O
Ortszeit Untergrenze Bedeckung Gattung
total tief tief mittel hoch
Fr, 07.08. 20:00 8400 m 8/8 0/8 - - -
Fr, 07.08. 14:00 - 0/8 0/8 - - -
Fr, 07.08. 8:00 - 0/8 0/8 - - -
Fr, 07.08. 2:00 6000 m 8/8 8/8 - - -
Do, 06.08. 20:00 - 0/8 0/8 - - -
Do, 06.08. 14:00 - 0/8 0/8 - - -
Do, 06.08. 8:00 - 0/8 0/8 - - -
Do, 06.08. 2:00 10500 m 7/8 0/8 - - -
Ortszeit Bedeckungsgrad in Achtel und Wolkenuntergrenze
Fr, 07.08. 20:30 6(8400m) 6(9000m)
Fr, 07.08. 20:20 6(8400m) 6(9000m)
Fr, 07.08. 20:10 4(8400m) 4(9000m)
Fr, 07.08. 20:00 8(8400m) 8(9000m)
Fr, 07.08. 19:50 8(8400m) 8(9000m)
Fr, 07.08. 19:40 6(8400m) 7(9000m) 7(9000m)
Fr, 07.08. 19:30 2(9000m) 6(9000m)
Fr, 07.08. 19:00 5(9000m) 8(9000m)
Ortszeit Luftdruck NN (hPa) Tendenz (hPa in 3 Std.)
Fr, 07.08. 20:00 1023 - 0,8
Fr, 07.08. 14:00 1025 - 0,5
Fr, 07.08. 8:00 1025 + 0,6
Fr, 07.08. 2:00 1024 + 0,2
Do, 06.08. 20:00 1023 + 0,1
Do, 06.08. 14:00 1023 + 0,4
Do, 06.08. 8:00 1022 + 1,3
Do, 06.08. 2:00 1020 + 0,5
Ortszeit Luftdruck NN (hPa) Tendenz (hPa in 3 Std.)
Fr, 07.08. 20:30 1023 - 0,8
Fr, 07.08. 20:20 1023 keine Meldung
Fr, 07.08. 20:10 1023 keine Meldung
Fr, 07.08. 20:00 1023 - 0,8
Fr, 07.08. 19:50 1023 keine Meldung
Fr, 07.08. 19:40 1023 keine Meldung
Fr, 07.08. 19:30 1023 - 0,9
Fr, 07.08. 19:00 1023 - 0,9
Ortszeit Schneehöhe (cm)
Fr, 07.08. 20:00 -
Fr, 07.08. 14:00 -
Fr, 07.08. 8:00 -
Fr, 07.08. 2:00 -
Do, 06.08. 20:00 -
Do, 06.08. 14:00 -
Do, 06.08. 8:00 -
Do, 06.08. 2:00 -
Ortszeit Schneehöhe (cm)
Fr, 07.08. 20:30 -
Fr, 07.08. 20:20 -
Fr, 07.08. 20:10 -
Fr, 07.08. 20:00 -
Fr, 07.08. 19:50 -
Fr, 07.08. 19:40 -
Fr, 07.08. 19:30 -
Fr, 07.08. 19:00 -
Link zu dieser Seite / Seite empfehlen

Das Wetter in ...